createdAt,value
2018-07-16T00:01:39.302Z,5.87
2018-07-16T00:04:09.189Z,5.67
2018-07-16T00:06:39.527Z,5.80
2018-07-16T00:09:10.056Z,5.93
2018-07-16T00:11:39.544Z,6.22
2018-07-16T00:14:09.184Z,6.47
2018-07-16T00:16:38.748Z,5.92
2018-07-16T00:19:08.392Z,7.87
2018-07-16T00:21:38.269Z,7.08
2018-07-16T00:24:07.940Z,7.65
2018-07-16T00:26:38.476Z,7.92
2018-07-16T00:29:08.185Z,7.83
2018-07-16T00:31:37.929Z,8.68
2018-07-16T00:34:07.605Z,8.55
2018-07-16T00:36:37.617Z,8.43
2018-07-16T00:39:08.187Z,8.33
2018-07-16T00:41:38.817Z,8.40
2018-07-16T00:44:09.256Z,9.90
2018-07-16T00:46:38.972Z,9.70
2018-07-16T00:49:09.401Z,10.45
2018-07-16T00:51:39.180Z,12.20
2018-07-16T00:54:08.746Z,11.67
2018-07-16T00:56:38.655Z,14.53
2018-07-16T00:59:08.221Z,16.70
2018-07-16T01:01:38.457Z,16.00
2018-07-16T01:04:08.064Z,17.30
2018-07-16T01:06:37.688Z,15.87
2018-07-16T01:09:08.289Z,13.47
2018-07-16T01:11:38.192Z,10.80
2018-07-16T01:14:08.090Z,10.57
2018-07-16T01:16:38.376Z,9.13
2018-07-16T01:19:07.886Z,9.37
2018-07-16T01:21:38.276Z,9.20
2018-07-16T01:24:08.040Z,9.40
2018-07-16T01:26:37.620Z,8.98
2018-07-16T01:29:07.227Z,9.25
2018-07-16T01:31:37.302Z,8.57
2018-07-16T01:34:07.686Z,9.30
2018-07-16T01:36:38.640Z,8.58
2018-07-16T01:39:07.988Z,9.70
2018-07-16T01:41:37.800Z,9.80
2018-07-16T01:44:08.295Z,8.83
2018-07-16T01:46:38.396Z,9.50
2018-07-16T01:49:09.200Z,9.80
2018-07-16T01:51:38.965Z,9.60
2018-07-16T01:54:08.625Z,9.63
2018-07-16T01:56:38.115Z,9.80
2018-07-16T01:59:08.064Z,9.25
2018-07-16T02:01:38.472Z,9.13
2018-07-16T02:04:07.406Z,8.80
2018-07-16T02:06:37.016Z,9.87
2018-07-16T02:09:07.412Z,9.23
2018-07-16T02:11:37.732Z,8.58
2018-07-16T02:14:07.271Z,8.90
2018-07-16T02:16:36.789Z,9.13
2018-07-16T02:19:06.760Z,8.50
2018-07-16T02:21:36.712Z,8.33
2018-07-16T02:24:06.321Z,8.90
2018-07-16T02:26:35.881Z,8.73
2018-07-16T02:29:05.470Z,8.97
2018-07-16T02:31:35.445Z,9.20
2018-07-16T02:34:05.050Z,8.55
2018-07-16T02:36:35.197Z,9.40
2018-07-16T02:39:05.563Z,8.90
2018-07-16T02:41:35.649Z,9.17
2018-07-16T02:44:06.320Z,9.67
2018-07-16T02:46:36.884Z,9.73
2018-07-16T02:49:06.664Z,9.10
2018-07-16T02:51:36.308Z,9.40
2018-07-16T02:54:07.212Z,9.33
2018-07-16T02:56:38.540Z,9.07
2018-07-16T02:59:08.663Z,10.07
2018-07-16T03:01:38.376Z,10.83
2018-07-16T03:04:08.139Z,10.77
2018-07-16T03:06:37.624Z,10.43
2018-07-16T03:09:08.226Z,10.27
2018-07-16T03:11:38.345Z,10.07
2018-07-16T03:14:08.925Z,9.37
2018-07-16T03:16:38.528Z,9.67
2018-07-16T03:19:08.085Z,10.57
2018-07-16T03:21:38.429Z,10.50
2018-07-16T03:24:07.929Z,9.47
2018-07-16T03:26:37.504Z,11.07
2018-07-16T03:29:07.717Z,9.30
2018-07-16T03:31:37.345Z,9.40
2018-07-16T03:34:07.311Z,8.63
2018-07-16T03:36:37.607Z,9.40
2018-07-16T03:39:09.290Z,8.37
2018-07-16T03:41:39.479Z,9.50
2018-07-16T03:44:09.100Z,9.30
2018-07-16T03:46:39.724Z,9.27
2018-07-16T03:49:09.716Z,9.80
2018-07-16T03:51:39.563Z,9.63
2018-07-16T03:54:09.776Z,9.47
2018-07-16T03:56:39.893Z,9.43
2018-07-16T03:59:09.777Z,8.73
2018-07-16T04:01:40.283Z,10.23
2018-07-16T04:04:09.957Z,10.00
2018-07-16T04:06:40.356Z,8.57
2018-07-16T04:09:10.504Z,8.53
2018-07-16T04:11:40.357Z,8.63
2018-07-16T04:14:10.417Z,8.23
2018-07-16T04:16:40.414Z,8.20
2018-07-16T04:19:10.056Z,7.90
2018-07-16T04:21:39.684Z,9.37
2018-07-16T04:24:10.128Z,9.77
2018-07-16T04:26:40.095Z,10.93
2018-07-16T04:29:09.729Z,10.03
2018-07-16T04:31:40.036Z,11.63
2018-07-16T04:34:10.153Z,11.68
2018-07-16T04:36:40.108Z,10.13
2018-07-16T04:39:10.016Z,11.23
2018-07-16T04:41:39.932Z,11.70
2018-07-16T04:44:09.504Z,10.73
2018-07-16T04:46:39.972Z,11.55
2018-07-16T04:49:09.931Z,11.65
2018-07-16T04:51:39.911Z,13.23
2018-07-16T04:54:09.432Z,12.40
2018-07-16T04:56:39.884Z,15.17
2018-07-16T04:59:09.913Z,14.85
2018-07-16T05:01:39.567Z,15.27
2018-07-16T05:04:09.093Z,14.53
2018-07-16T05:06:39.050Z,16.20
2018-07-16T05:09:08.656Z,16.57
2018-07-16T05:11:38.595Z,16.83
2018-07-16T05:14:08.172Z,16.67
2018-07-16T05:16:38.064Z,16.57
2018-07-16T05:19:08.307Z,15.00
2018-07-16T05:21:38.248Z,13.70
2018-07-16T05:24:08.683Z,14.33
2018-07-16T05:26:39.486Z,15.00
2018-07-16T05:29:09.188Z,13.48
2018-07-16T05:31:39.143Z,14.23
2018-07-16T05:34:09.222Z,13.25
2018-07-16T05:36:39.734Z,13.48
2018-07-16T05:39:09.472Z,12.78
2018-07-16T05:41:39.129Z,11.93
2018-07-16T05:44:09.720Z,9.38
2018-07-16T05:46:40.009Z,9.65
2018-07-16T05:49:10.059Z,9.20
2018-07-16T05:51:40.428Z,8.90
2018-07-16T05:54:10.604Z,9.33
2018-07-16T05:56:40.392Z,10.28
2018-07-16T05:59:10.113Z,8.88
2018-07-16T06:01:39.983Z,9.40
2018-07-16T06:04:10.578Z,9.70
2018-07-16T06:06:40.112Z,11.25
2018-07-16T06:09:10.418Z,10.48
2018-07-16T06:11:40.080Z,9.00
2018-07-16T06:14:10.540Z,9.03
2018-07-16T06:16:40.869Z,9.10
2018-07-16T06:19:10.524Z,9.60
2018-07-16T06:21:40.776Z,8.68
2018-07-16T06:24:10.503Z,9.08
2018-07-16T06:26:40.007Z,8.90
2018-07-16T06:29:10.529Z,8.45
2018-07-16T06:31:40.868Z,8.73
2018-07-16T06:34:18.559Z,7.70
2018-07-16T06:36:49.224Z,7.05
2018-07-16T06:39:19.992Z,9.58
2018-07-16T06:41:49.778Z,7.70
2018-07-16T06:44:20.033Z,7.33
2018-07-16T06:46:50.208Z,7.47
2018-07-16T06:49:21.343Z,7.70
2018-07-16T06:51:51.456Z,8.65
2018-07-16T06:54:21.717Z,7.35
2018-07-16T06:56:52.304Z,12.47
2018-07-16T06:59:21.672Z,7.20
2018-07-16T07:01:52.217Z,11.22
2018-07-16T07:04:24.193Z,9.75
2018-07-16T07:06:54.102Z,7.95
2018-07-16T07:09:24.905Z,9.58
2018-07-16T07:11:55.171Z,9.15
2018-07-16T07:14:24.713Z,7.12
2018-07-16T07:16:54.326Z,7.28
2018-07-16T07:19:23.963Z,6.30
2018-07-16T07:21:53.824Z,7.45
2018-07-16T07:24:24.201Z,6.70
2018-07-16T07:26:54.255Z,7.75
2018-07-16T07:29:24.363Z,7.30
2018-07-16T07:31:54.563Z,7.50
2018-07-16T07:34:24.738Z,6.95
2018-07-16T07:36:54.095Z,6.47
2018-07-16T07:39:24.135Z,7.03
2018-07-16T07:41:54.080Z,7.03
2018-07-16T07:44:24.273Z,7.90
2018-07-16T07:46:54.501Z,7.15
2018-07-16T07:49:24.717Z,7.40
2018-07-16T07:51:54.443Z,6.62
2018-07-16T07:54:24.306Z,6.95
2018-07-16T07:56:54.348Z,6.85
2018-07-16T07:59:24.080Z,6.45
2018-07-16T08:01:54.404Z,5.87
2018-07-16T08:04:24.933Z,6.35
2018-07-16T08:06:59.514Z,6.33
2018-07-16T08:09:29.419Z,6.30
2018-07-16T08:11:59.476Z,7.42
2018-07-16T08:14:30.197Z,6.80
2018-07-16T08:17:00.721Z,7.45
2018-07-16T08:19:31.584Z,7.20
2018-07-16T08:22:01.719Z,8.15
2018-07-16T08:24:33.161Z,7.50
2018-07-16T08:27:03.440Z,7.25
2018-07-16T08:29:33.676Z,8.75
2018-07-16T08:32:03.800Z,8.43
2018-07-16T08:34:34.967Z,7.83
2018-07-16T08:37:05.879Z,8.18
2018-07-16T08:39:36.700Z,9.03
2018-07-16T08:42:07.230Z,10.10
2018-07-16T08:44:38.092Z,8.88
2018-07-16T08:47:07.852Z,8.70
2018-07-16T08:49:38.479Z,8.48
2018-07-16T08:52:08.300Z,8.93
2018-07-16T08:54:37.985Z,9.10
2018-07-16T08:57:08.401Z,7.22
2018-07-16T08:59:38.350Z,8.80
2018-07-16T09:02:08.216Z,8.83
2018-07-16T09:04:38.949Z,8.58
2018-07-16T09:07:09.516Z,9.10
2018-07-16T09:09:40.003Z,9.25
2018-07-16T09:12:09.958Z,8.88
2018-07-16T09:14:39.746Z,8.83
2018-07-16T09:17:09.567Z,8.73
2018-07-16T09:19:39.639Z,8.20
2018-07-16T09:22:10.100Z,8.03
2018-07-16T09:24:40.559Z,8.70
2018-07-16T09:27:10.165Z,8.63
2018-07-16T09:29:39.759Z,8.38
2018-07-16T09:32:09.428Z,8.25
2018-07-16T09:34:38.988Z,8.23
2018-07-16T09:37:08.869Z,8.30
2018-07-16T09:39:38.476Z,7.25
2018-07-16T09:42:08.720Z,10.55
2018-07-16T09:44:55.538Z,8.08
2018-07-16T09:47:51.634Z,8.18
2018-07-16T09:50:21.720Z,8.45
2018-07-16T09:52:51.678Z,10.63
2018-07-16T09:55:21.584Z,7.47
2018-07-16T09:58:00.898Z,14.68
2018-07-16T10:00:35.664Z,6.72
2018-07-16T10:03:05.625Z,7.58
2018-07-16T10:05:36.173Z,8.30
2018-07-16T10:08:06.703Z,6.40
2018-07-16T10:10:36.637Z,6.28
2018-07-16T10:13:06.652Z,6.53
2018-07-16T10:15:37.503Z,7.42
2018-07-16T10:18:07.695Z,6.35
2018-07-16T10:20:39.014Z,5.80
2018-07-16T10:23:08.926Z,5.95
2018-07-16T10:25:38.756Z,5.97
2018-07-16T10:28:09.110Z,6.15
2018-07-16T10:30:39.430Z,6.30
2018-07-16T10:33:09.400Z,6.60
2018-07-16T10:35:39.231Z,5.80
2018-07-16T10:38:24.349Z,6.33
2018-07-16T10:40:54.029Z,5.83
2018-07-16T10:43:24.877Z,5.67
2018-07-16T10:45:56.337Z,5.70
2018-07-16T10:48:26.816Z,5.78
2018-07-16T10:50:57.440Z,5.87
2018-07-16T10:53:27.281Z,5.70
2018-07-16T10:55:57.041Z,6.05
2018-07-16T10:58:27.140Z,6.35
2018-07-16T11:00:56.836Z,5.55
2018-07-16T11:03:27.363Z,5.90
2018-07-16T11:06:00.860Z,6.17
2018-07-16T11:08:31.160Z,5.87
2018-07-16T11:11:02.176Z,6.87
2018-07-16T11:13:32.625Z,5.85
2018-07-16T11:16:03.587Z,5.95
2018-07-16T11:18:33.436Z,7.75
2018-07-16T11:21:02.471Z,5.75
2018-07-16T11:23:32.616Z,6.35
2018-07-16T11:26:02.192Z,6.00
2018-07-16T11:28:33.017Z,5.62
2018-07-16T11:31:03.402Z,6.53
2018-07-16T11:33:34.236Z,6.87
2018-07-16T11:36:03.964Z,7.05
2018-07-16T11:38:33.571Z,7.15
2018-07-16T11:41:04.508Z,6.85
2018-07-16T11:43:34.944Z,7.00
2018-07-16T11:46:05.587Z,6.53
2018-07-16T11:48:35.396Z,7.50
2018-07-16T11:51:05.773Z,7.80
2018-07-16T11:53:35.506Z,8.60
2018-07-16T11:56:05.296Z,7.65
2018-07-16T11:58:35.518Z,7.45
2018-07-16T12:01:05.640Z,8.18
2018-07-16T12:03:36.255Z,7.20
2018-07-16T12:06:11.191Z,9.50
2018-07-16T12:08:41.162Z,8.63
2018-07-16T12:11:11.219Z,7.58
2018-07-16T12:13:46.084Z,7.12
2018-07-16T12:16:18.897Z,7.72
2018-07-16T12:18:49.071Z,7.00
2018-07-16T12:21:18.865Z,9.55
2018-07-16T12:23:50.190Z,8.40
2018-07-16T12:26:21.105Z,11.22
2018-07-16T12:28:51.393Z,7.97
2018-07-16T12:31:24.887Z,7.03
2018-07-16T12:33:58.552Z,7.25
2018-07-16T12:36:29.441Z,7.20
2018-07-16T12:39:02.116Z,6.72
2018-07-16T12:41:31.887Z,6.45
2018-07-16T12:44:01.468Z,7.33
2018-07-16T12:46:31.654Z,7.50
2018-07-16T12:49:02.705Z,10.58
2018-07-16T12:51:34.758Z,9.10
2018-07-16T12:54:05.117Z,6.90
2018-07-16T12:56:35.140Z,7.22
2018-07-16T12:59:09.068Z,7.70
2018-07-16T13:01:38.718Z,7.35
2018-07-16T13:04:07.715Z,8.53
2018-07-16T13:06:37.922Z,6.70
2018-07-16T13:09:07.845Z,5.40
2018-07-16T13:11:37.463Z,5.35
2018-07-16T13:14:09.747Z,6.28
2018-07-16T13:16:39.199Z,4.72
2018-07-16T13:19:08.903Z,4.42
2018-07-16T13:21:38.695Z,3.80
2018-07-16T13:26:42.259Z,5.12
2018-07-16T13:29:17.153Z,3.80
2018-07-16T13:31:46.955Z,4.22
2018-07-16T13:34:15.937Z,6.20
2018-07-16T13:36:49.429Z,7.75
2018-07-16T13:39:24.599Z,10.80
2018-07-16T13:41:58.091Z,14.68
2018-07-16T13:44:27.348Z,5.62
2018-07-16T13:47:01.050Z,7.20
2018-07-16T13:49:31.880Z,9.08
2018-07-16T13:52:03.243Z,8.98
2018-07-16T13:54:33.211Z,10.35
2018-07-16T13:57:04.336Z,6.37
2018-07-16T13:59:40.467Z,9.17
2018-07-16T14:02:10.271Z,5.60
2018-07-16T14:04:39.135Z,6.65
2018-07-16T14:07:09.580Z,5.67
2018-07-16T14:09:40.137Z,4.90
2018-07-16T14:12:12.515Z,4.20
2018-07-16T14:14:44.420Z,4.67
2018-07-16T14:17:14.504Z,4.67
2018-07-16T14:19:44.174Z,4.50
2018-07-16T14:22:13.744Z,5.37
2018-07-16T14:24:42.832Z,4.72
2018-07-16T14:27:12.119Z,4.30
2018-07-16T14:29:41.376Z,3.92
2018-07-16T14:32:11.423Z,4.30
2018-07-16T14:34:43.072Z,4.08
2018-07-16T14:37:12.712Z,4.08
2018-07-16T14:39:42.015Z,4.55
2018-07-16T14:42:11.304Z,3.70
2018-07-16T14:44:41.042Z,3.90
2018-07-16T14:47:10.623Z,3.92
2018-07-16T14:49:39.776Z,3.92
2018-07-16T14:52:09.078Z,4.45
2018-07-16T14:54:38.683Z,5.05
2018-07-16T14:57:08.362Z,5.28
2018-07-16T14:59:37.333Z,5.53
2018-07-16T15:02:06.592Z,9.85
2018-07-16T15:04:35.692Z,7.30
2018-07-16T15:07:05.353Z,8.53
2018-07-16T15:09:34.546Z,7.55
2018-07-16T15:12:03.835Z,7.35
2018-07-16T15:14:33.483Z,6.80
2018-07-16T15:17:02.817Z,6.53
2018-07-16T15:19:32.615Z,5.67
2018-07-16T15:22:02.027Z,6.55
2018-07-16T15:24:31.667Z,6.85
2018-07-16T15:27:01.220Z,7.12
2018-07-16T15:29:30.740Z,6.47
2018-07-16T15:32:00.471Z,7.00
2018-07-16T15:34:29.936Z,7.87
2018-07-16T15:37:00.737Z,6.28
2018-07-16T15:39:29.776Z,6.33
2018-07-16T15:41:59.095Z,5.95
2018-07-16T15:44:28.992Z,6.12
2018-07-16T15:46:58.324Z,6.20
2018-07-16T15:49:28.206Z,5.75
2018-07-16T15:51:57.205Z,5.50
2018-07-16T15:54:26.473Z,5.67
2018-07-16T15:56:56.109Z,5.45
2018-07-16T15:59:25.939Z,5.78
2018-07-16T16:01:55.470Z,5.90
2018-07-16T16:04:24.923Z,5.72
2018-07-16T16:06:54.544Z,5.12
2018-07-16T16:09:24.040Z,4.40
2018-07-16T16:11:53.130Z,4.95
2018-07-16T16:14:22.411Z,4.03
2018-07-16T16:16:51.418Z,3.87
2018-07-16T16:19:21.041Z,3.87
2018-07-16T16:21:50.068Z,3.92
2018-07-16T16:24:24.710Z,3.45
2018-07-16T16:26:54.312Z,3.67
2018-07-16T16:29:23.611Z,3.50
2018-07-16T16:31:53.381Z,3.58
2018-07-16T16:34:26.139Z,3.80
2018-07-16T16:36:57.818Z,3.80
2018-07-16T16:39:27.734Z,4.15
2018-07-16T16:41:57.152Z,3.92
2018-07-16T16:44:26.421Z,5.85
2018-07-16T16:46:55.413Z,5.83
2018-07-16T16:49:24.779Z,5.30
2018-07-16T16:51:54.088Z,5.35
2018-07-16T16:54:23.322Z,5.70
2018-07-16T16:56:52.870Z,4.92
2018-07-16T16:59:22.299Z,5.05
2018-07-16T17:01:52.018Z,5.78
2018-07-16T17:04:21.912Z,5.42
2018-07-16T17:06:51.737Z,5.28
2018-07-16T17:09:21.107Z,5.25
2018-07-16T17:11:50.824Z,4.40
2018-07-16T17:14:26.853Z,5.03
2018-07-16T17:16:57.230Z,5.62
2018-07-16T17:19:29.208Z,6.45
2018-07-16T17:21:59.161Z,6.30
2018-07-16T17:24:29.223Z,6.45
2018-07-16T17:26:58.594Z,6.85
2018-07-16T17:29:27.940Z,6.62
2018-07-16T17:31:57.263Z,6.28
2018-07-16T17:34:26.788Z,5.92
2018-07-16T17:36:56.085Z,5.55
2018-07-16T17:39:28.290Z,6.12
2018-07-16T17:41:57.470Z,6.28
2018-07-16T17:44:27.123Z,6.30
2018-07-16T17:46:56.068Z,7.15
2018-07-16T17:49:25.816Z,6.30
2018-07-16T17:51:54.928Z,6.62
2018-07-16T17:54:24.570Z,6.00
2018-07-16T17:56:53.720Z,7.37
2018-07-16T17:59:22.865Z,8.70
2018-07-16T18:01:51.967Z,7.15
2018-07-16T18:04:21.139Z,8.05
2018-07-16T18:06:50.194Z,6.35
2018-07-16T18:09:19.167Z,5.95
2018-07-16T18:11:48.396Z,6.33
2018-07-16T18:14:17.499Z,5.67
2018-07-16T18:16:48.392Z,5.87
2018-07-16T18:19:17.603Z,5.83
2018-07-16T18:21:46.864Z,5.90
2018-07-16T18:24:16.791Z,6.33
2018-07-16T18:26:45.794Z,5.83
2018-07-16T18:29:15.627Z,6.53
2018-07-16T18:31:45.306Z,7.55
2018-07-16T18:34:14.590Z,6.55
2018-07-16T18:36:45.635Z,5.85
2018-07-16T18:39:14.767Z,5.47
2018-07-16T18:41:44.351Z,5.80
2018-07-16T18:44:13.808Z,6.65
2018-07-16T18:46:43.566Z,6.17
2018-07-16T18:49:13.035Z,6.05
2018-07-16T18:51:42.468Z,5.72
2018-07-16T18:54:12.604Z,5.28
2018-07-16T18:56:41.663Z,4.60
2018-07-16T18:59:11.511Z,5.53
2018-07-16T19:01:41.521Z,5.15
2018-07-16T19:04:10.508Z,6.28
2018-07-16T19:06:41.079Z,5.12
2018-07-16T19:09:10.679Z,5.10
2018-07-16T19:11:40.568Z,5.08
2018-07-16T19:14:10.264Z,4.97
2018-07-16T19:16:40.394Z,4.95
2018-07-16T19:19:09.923Z,4.72
2018-07-16T19:21:40.548Z,5.17
2018-07-16T19:24:10.917Z,4.58
2018-07-16T19:26:40.858Z,4.72
2018-07-16T19:29:10.804Z,5.40
2018-07-16T19:31:40.827Z,5.65
2018-07-16T19:34:10.943Z,6.00
2018-07-16T19:36:41.425Z,5.70
2018-07-16T19:39:12.991Z,4.95
2018-07-16T19:41:43.411Z,5.50
2018-07-16T19:44:22.420Z,5.15
2018-07-16T19:46:52.832Z,5.20
2018-07-16T19:49:24.223Z,5.03
2018-07-16T19:51:54.772Z,4.97
2018-07-16T19:54:25.763Z,4.28
2018-07-16T19:57:00.529Z,5.55
2018-07-16T19:59:31.311Z,4.92
2018-07-16T20:02:01.331Z,4.67
2018-07-16T20:04:33.424Z,5.25
2018-07-16T20:07:04.016Z,5.67
2018-07-16T20:09:34.408Z,5.85
2018-07-16T20:12:04.451Z,5.80
2018-07-16T20:14:33.767Z,6.03
2018-07-16T20:17:03.532Z,6.35
2018-07-16T20:19:33.507Z,6.28
2018-07-16T20:22:02.723Z,6.30
2018-07-16T20:24:32.387Z,6.28
2018-07-16T20:27:02.287Z,5.10
2018-07-16T20:29:32.248Z,6.40
2018-07-16T20:32:04.023Z,5.17
2018-07-16T20:34:32.934Z,7.60
2018-07-16T20:37:01.976Z,7.92
2018-07-16T20:39:31.083Z,6.58
2018-07-16T20:42:00.964Z,5.95
2018-07-16T20:44:30.399Z,6.85
2018-07-16T20:46:59.756Z,6.80
2018-07-16T20:49:28.928Z,6.35
2018-07-16T20:51:58.703Z,6.62
2018-07-16T20:54:27.660Z,6.20
2018-07-16T20:56:56.790Z,6.00
2018-07-16T20:59:25.644Z,6.20
2018-07-16T21:01:54.787Z,5.80
2018-07-16T21:04:24.475Z,6.00
2018-07-16T21:06:53.926Z,5.22
2018-07-16T21:09:22.900Z,5.55
2018-07-16T21:11:51.864Z,5.35
2018-07-16T21:14:21.155Z,6.75
2018-07-16T21:16:50.041Z,7.12
2018-07-16T21:19:18.985Z,8.68
2018-07-16T21:21:47.875Z,8.15
2018-07-16T21:24:16.776Z,8.40
2018-07-16T21:26:45.660Z,8.00
2018-07-16T21:29:14.661Z,7.42
2018-07-16T21:31:44.166Z,8.18
2018-07-16T21:34:13.047Z,8.25
2018-07-16T21:36:41.903Z,7.90
2018-07-16T21:39:11.219Z,8.00
2018-07-16T21:41:40.374Z,8.88
2018-07-16T21:44:09.348Z,7.97
2018-07-16T21:46:38.247Z,7.87
2018-07-16T21:49:07.250Z,11.18
2018-07-16T21:51:36.128Z,11.10
2018-07-16T21:54:05.015Z,11.95
2018-07-16T21:56:34.048Z,10.48
2018-07-16T21:59:02.903Z,9.90
2018-07-16T22:01:31.834Z,9.78
2018-07-16T22:04:03.192Z,10.80
2018-07-16T22:06:32.304Z,13.80
2018-07-16T22:09:01.177Z,12.75
2018-07-16T22:11:30.445Z,9.70
2018-07-16T22:13:59.651Z,8.08
2018-07-16T22:16:28.528Z,9.25
2018-07-16T22:18:57.375Z,9.88
2018-07-16T22:21:27.593Z,10.50
2018-07-16T22:23:57.809Z,9.08
2018-07-16T22:26:26.679Z,9.70
2018-07-16T22:28:55.590Z,9.95
2018-07-16T22:31:24.503Z,9.83
2018-07-16T22:33:53.510Z,10.38
2018-07-16T22:36:22.498Z,9.08
2018-07-16T22:38:51.407Z,9.28
2018-07-16T22:41:20.284Z,9.23
2018-07-16T22:43:49.194Z,11.40
2018-07-16T22:46:18.195Z,9.90
2018-07-16T22:48:47.034Z,11.33
2018-07-16T22:51:16.007Z,10.72
2018-07-16T22:53:44.865Z,11.25
2018-07-16T22:56:13.748Z,9.98
2018-07-16T22:58:42.615Z,10.75
2018-07-16T23:01:11.505Z,9.85
2018-07-16T23:03:40.351Z,9.68
2018-07-16T23:06:09.227Z,9.93
2018-07-16T23:08:38.116Z,9.58
2018-07-16T23:11:06.968Z,9.98
2018-07-16T23:13:35.926Z,9.98
2018-07-16T23:16:04.875Z,8.73
2018-07-16T23:18:33.739Z,9.65
2018-07-16T23:21:02.697Z,10.13
2018-07-16T23:23:31.664Z,9.15
2018-07-16T23:26:00.532Z,9.50
2018-07-16T23:28:29.543Z,10.08
2018-07-16T23:30:58.432Z,8.65
2018-07-16T23:33:27.372Z,8.33
2018-07-16T23:35:56.208Z,7.95
2018-07-16T23:38:25.067Z,7.50
2018-07-16T23:40:53.928Z,8.15
2018-07-16T23:43:22.790Z,6.95
2018-07-16T23:45:51.615Z,7.00
2018-07-16T23:48:20.483Z,6.55
2018-07-16T23:50:49.403Z,6.33
2018-07-16T23:53:18.248Z,6.75
2018-07-16T23:55:47.183Z,6.85
2018-07-16T23:58:16.015Z,7.95
